This is the latest recevied weather packets stored in our database for station/object K0GDI. If no packets are shown the sender has not sent any weather packets the latest 10 day(s).
| Time | Temp. | Humidity | Pressure | Rain* | Wind** | Luminosity | Snow |
|---|---|---|---|---|---|---|---|
| 1788031269 | 30.56° C | 42% | 1019.7 hPa | 0 mm | 2.24 m/s, 138° | - | - |
| 1788030668 | 30.56° C | 43% | 1019.7 hPa | 0 mm | 1.79 m/s, 149° | - | - |
| 1788030068 | 30.56° C | 44% | 1019.7 hPa | 0 mm | 1.34 m/s, 137° | - | - |
| 1788029467 | 30° C | 45% | 1019.7 hPa | 0 mm | 1.79 m/s, 143° | - | - |
| 1788028867 | 30.56° C | 46% | 1019.7 hPa | 0 mm | 1.34 m/s, 144° | - | - |
| 1788028266 | 30° C | 45% | 1019.7 hPa | 0 mm | 1.34 m/s, 137° | - | - |
| 1788027665 | 29.44° C | 47% | 1019.7 hPa | 0 mm | 2.24 m/s, 148° | - | - |
| 1788027064 | 30° C | 46% | 1019.7 hPa | 0 mm | 1.34 m/s, 152° | - | - |
| 1788026463 | 29.44° C | 48% | 1019.7 hPa | 0 mm | 1.79 m/s, 135° | - | - |
| 1788025862 | 29.44° C | 47% | 1019.7 hPa | 0 mm | 1.79 m/s, 141° | - | - |
| 1788025261 | 29.44° C | 47% | 1019.7 hPa | 0 mm | 1.79 m/s, 143° | - | - |
| 1788024661 | 30° C | 48% | 1019.7 hPa | 0 mm | 0.89 m/s, 156° | - | - |
| 1788024060 | 28.89° C | 50% | 1019.7 hPa | 0 mm | 1.34 m/s, 155° | - | - |
| 1788023459 | 29.44° C | 48% | 1019.7 hPa | 0 mm | 1.34 m/s, 152° | - | - |
| 1788022857 | 28.33° C | 50% | 1019.7 hPa | 0 mm | 1.34 m/s, 137° | - | - |
| 1788022256 | 28.33° C | 51% | 1019.7 hPa | 0 mm | 1.79 m/s, 141° | - | - |
| 1788021655 | 28.33° C | 53% | 1019.7 hPa | 0 mm | 1.34 m/s, 148° | - | - |
| 1788021054 | 28.33° C | 53% | 1019.7 hPa | 0 mm | 1.79 m/s, 147° | - | - |
| 1788020454 | 28.33° C | 52% | 1019.7 hPa | 0 mm | 1.79 m/s, 141° | - | - |
| 1788019853 | 28.89° C | 54% | 1019.7 hPa | 0 mm | 1.34 m/s, 145° | - | - |
| 1788019252 | 28.33° C | 53% | 1019.7 hPa | 0 mm | 0.45 m/s, 187° | - | - |
| 1788018651 | 28.33° C | 56% | 1019.7 hPa | 0 mm | 1.34 m/s, 141° | - | - |
| 1788017451 | 27.22° C | 60% | 1019.7 hPa | 0 mm | 1.79 m/s, 138° | - | - |
| 1788016851 | 27.78° C | 60% | 1019.7 hPa | 0 mm | 1.34 m/s, 134° | - | - |
| 1788015051 | 25.56° C | 67% | 1019.7 hPa | 0 mm | - | - | - |
* Rain latest hour (hover to see other rain measurements)
** Current wind speed in m/s (hover to see current wind gust speed)